createdAt,value
2022-11-23T00:00:44.902Z,5.75
2022-11-23T00:03:18.120Z,5.40
2022-11-23T00:05:51.185Z,4.90
2022-11-23T00:08:23.917Z,6.10
2022-11-23T00:11:00.343Z,4.65
2022-11-23T00:13:35.255Z,6.37
2022-11-23T00:16:09.868Z,4.87
2022-11-23T00:18:43.005Z,5.97
2022-11-23T00:21:18.006Z,7.85
2022-11-23T00:23:51.532Z,4.70
2022-11-23T00:26:24.795Z,4.72
2022-11-23T00:28:58.129Z,7.00
2022-11-23T00:31:32.168Z,3.55
2022-11-23T00:34:05.430Z,4.87
2022-11-23T00:36:38.635Z,4.05
2022-11-23T00:39:11.732Z,6.05
2022-11-23T00:41:46.472Z,7.00
2022-11-23T00:44:19.715Z,7.35
2022-11-23T00:46:52.839Z,5.70
2022-11-23T00:49:25.894Z,5.33
2022-11-23T00:51:59.407Z,6.47
2022-11-23T00:54:32.476Z,4.50
2022-11-23T00:57:05.992Z,4.47
2022-11-23T00:59:38.876Z,5.60
2022-11-23T01:02:12.044Z,4.50
2022-11-23T01:04:45.260Z,4.60
2022-11-23T01:07:18.546Z,4.62
2022-11-23T01:09:51.862Z,6.30
2022-11-23T01:12:24.902Z,7.92
2022-11-23T01:14:58.174Z,6.83
2022-11-23T01:17:31.340Z,6.00
2022-11-23T01:20:04.723Z,4.62
2022-11-23T01:22:37.826Z,6.00
2022-11-23T01:25:11.510Z,3.50
2022-11-23T01:27:44.587Z,4.50
2022-11-23T01:30:18.717Z,4.95
2022-11-23T01:32:51.756Z,3.20
2022-11-23T01:35:24.841Z,4.10
2022-11-23T01:37:58.136Z,4.08
2022-11-23T01:40:31.469Z,2.90
2022-11-23T01:43:06.279Z,3.98
2022-11-23T01:45:42.291Z,4.40
2022-11-23T01:48:18.718Z,3.15
2022-11-23T01:50:53.704Z,3.72
2022-11-23T01:53:28.947Z,4.70
2022-11-23T01:56:04.318Z,3.77
2022-11-23T01:58:40.205Z,5.35
2022-11-23T02:01:14.488Z,6.72
2022-11-23T02:03:49.753Z,2.90
2022-11-23T02:06:24.478Z,6.17
2022-11-23T02:08:58.983Z,4.78
2022-11-23T02:11:32.444Z,3.02
2022-11-23T02:14:05.933Z,2.98
2022-11-23T02:16:40.083Z,4.72
2022-11-23T02:19:18.892Z,4.30
2022-11-23T02:21:54.200Z,4.62
2022-11-23T02:24:30.132Z,6.87
2022-11-23T02:27:03.681Z,5.30
2022-11-23T02:29:38.456Z,5.83
2022-11-23T02:32:11.596Z,4.72
2022-11-23T02:34:44.685Z,2.77
2022-11-23T02:37:19.540Z,5.42
2022-11-23T02:39:55.746Z,4.90
2022-11-23T02:42:31.088Z,3.58
2022-11-23T02:45:07.798Z,3.58
2022-11-23T02:47:42.334Z,28.38
2022-11-23T02:50:15.994Z,4.20
2022-11-23T02:52:49.107Z,5.92
2022-11-23T02:55:22.502Z,4.03
2022-11-23T02:57:55.606Z,6.30
2022-11-23T03:00:28.667Z,4.60
2022-11-23T03:03:04.964Z,5.75
2022-11-23T03:05:38.611Z,6.75
2022-11-23T03:08:11.822Z,2.92
2022-11-23T03:10:45.013Z,4.20
2022-11-23T03:13:18.071Z,4.58
2022-11-23T03:15:51.507Z,4.03
2022-11-23T03:18:26.811Z,6.28
2022-11-23T03:21:05.610Z,4.47
2022-11-23T03:23:40.541Z,4.37
2022-11-23T03:26:14.145Z,4.85
2022-11-23T03:28:53.296Z,5.15
2022-11-23T03:31:26.825Z,3.70
2022-11-23T03:34:00.269Z,4.35
2022-11-23T03:36:35.397Z,5.90
2022-11-23T03:39:09.234Z,4.92
2022-11-23T03:41:44.221Z,4.60
2022-11-23T03:44:17.553Z,4.83
2022-11-23T03:46:51.572Z,6.22
2022-11-23T03:49:24.654Z,4.15
2022-11-23T03:51:58.488Z,5.00
2022-11-23T03:54:32.823Z,6.37
2022-11-23T03:57:06.249Z,7.20
2022-11-23T03:59:39.717Z,6.92
2022-11-23T04:02:13.391Z,5.28
2022-11-23T04:04:48.513Z,9.65
2022-11-23T04:07:30.667Z,7.90
2022-11-23T04:10:04.657Z,7.75
2022-11-23T04:12:39.623Z,6.87
2022-11-23T04:15:14.360Z,12.33
2022-11-23T04:17:48.532Z,8.18
2022-11-23T04:20:22.399Z,8.68
2022-11-23T04:22:56.111Z,7.00
2022-11-23T04:25:30.541Z,5.83
2022-11-23T04:28:04.787Z,4.37
2022-11-23T04:30:38.525Z,3.60
2022-11-23T04:33:12.521Z,4.95
2022-11-23T04:35:46.235Z,3.95
2022-11-23T04:38:19.937Z,3.55
2022-11-23T04:40:53.870Z,4.80
2022-11-23T04:43:27.296Z,3.83
2022-11-23T04:46:00.681Z,4.05
2022-11-23T04:48:35.286Z,5.22
2022-11-23T04:51:09.831Z,6.85
2022-11-23T04:53:44.190Z,5.03
2022-11-23T04:56:18.698Z,2.85
2022-11-23T04:58:53.659Z,3.45
2022-11-23T05:01:27.329Z,3.15
2022-11-23T05:04:19.388Z,4.75
2022-11-23T05:06:53.711Z,4.30
2022-11-23T05:09:28.469Z,4.28
2022-11-23T05:12:03.600Z,5.40
2022-11-23T05:14:37.389Z,4.08
2022-11-23T05:17:11.527Z,4.28
2022-11-23T05:19:49.068Z,5.87
2022-11-23T05:22:24.709Z,6.17
2022-11-23T05:24:59.005Z,3.40
2022-11-23T05:27:32.563Z,6.17
2022-11-23T05:30:07.638Z,5.97
2022-11-23T05:32:41.912Z,4.65
2022-11-23T05:35:15.892Z,5.45
2022-11-23T05:37:49.444Z,4.47
2022-11-23T05:40:23.179Z,3.40
2022-11-23T05:42:58.800Z,5.25
2022-11-23T05:45:32.511Z,4.28
2022-11-23T05:48:07.198Z,3.00
2022-11-23T05:50:50.715Z,3.70
2022-11-23T05:53:27.609Z,3.65
2022-11-23T05:56:03.796Z,3.60
2022-11-23T05:58:40.100Z,4.37
2022-11-23T06:01:15.536Z,7.83
2022-11-23T06:03:52.042Z,4.95
2022-11-23T06:06:27.188Z,5.45
2022-11-23T06:09:05.560Z,5.40
2022-11-23T06:11:42.472Z,4.62
2022-11-23T06:14:19.665Z,3.40
2022-11-23T06:16:54.462Z,4.37
2022-11-23T06:19:36.018Z,3.62
2022-11-23T06:22:10.208Z,3.42
2022-11-23T06:24:45.318Z,4.20
2022-11-23T06:27:23.440Z,6.22
2022-11-23T06:29:57.467Z,5.45
2022-11-23T06:32:31.833Z,4.17
2022-11-23T06:35:06.204Z,7.35
2022-11-23T06:37:41.555Z,4.05
2022-11-23T06:40:15.762Z,4.08
2022-11-23T06:42:49.630Z,5.28
2022-11-23T06:45:24.437Z,5.20
2022-11-23T06:47:59.507Z,4.65
2022-11-23T06:50:32.292Z,3.25
2022-11-23T06:53:05.499Z,4.50
2022-11-23T06:55:40.983Z,4.35
2022-11-23T06:58:14.450Z,5.97
2022-11-23T07:00:49.162Z,5.58
2022-11-23T07:03:25.800Z,3.80
2022-11-23T07:06:07.533Z,7.17
2022-11-23T07:08:43.226Z,4.17
2022-11-23T07:11:27.327Z,4.33
2022-11-23T07:14:00.940Z,5.37
2022-11-23T07:16:35.195Z,3.83
2022-11-23T07:19:08.994Z,5.70
2022-11-23T07:21:42.496Z,4.58
2022-11-23T07:24:17.451Z,6.58
2022-11-23T07:26:51.509Z,4.37
2022-11-23T07:29:25.433Z,3.87
2022-11-23T07:31:59.169Z,4.10
2022-11-23T07:34:32.869Z,5.87
2022-11-23T07:37:06.436Z,4.20
2022-11-23T07:39:56.738Z,3.58
2022-11-23T07:42:34.462Z,3.00
2022-11-23T07:44:51.171Z,6.55
2022-11-23T07:47:24.487Z,3.50
2022-11-23T07:49:58.065Z,4.50
2022-11-23T07:52:31.701Z,6.45
2022-11-23T07:55:05.586Z,4.55
2022-11-23T07:57:38.775Z,8.63
2022-11-23T08:00:19.046Z,4.47
2022-11-23T08:03:25.467Z,9.68
2022-11-23T08:05:28.124Z,3.47
2022-11-23T08:08:02.956Z,3.47
2022-11-23T08:10:43.493Z,3.98
2022-11-23T08:13:12.006Z,4.65
2022-11-23T08:15:50.186Z,4.28
2022-11-23T08:18:20.283Z,3.08
2022-11-23T08:20:53.999Z,5.55
2022-11-23T08:23:27.502Z,5.00
2022-11-23T08:26:02.576Z,5.17
2022-11-23T08:28:37.617Z,7.47
2022-11-23T08:31:12.771Z,3.77
2022-11-23T08:33:48.317Z,4.92
2022-11-23T08:36:21.698Z,5.65
2022-11-23T08:38:55.369Z,4.33
2022-11-23T08:41:28.804Z,5.22
2022-11-23T08:44:02.456Z,5.03
2022-11-23T08:46:36.189Z,3.72
2022-11-23T08:49:10.322Z,3.10
2022-11-23T08:51:49.733Z,3.40
2022-11-23T08:54:18.339Z,3.80
2022-11-23T08:56:52.248Z,5.33
2022-11-23T08:59:25.947Z,4.33
2022-11-23T09:02:00.805Z,3.80
2022-11-23T09:04:37.946Z,4.65
2022-11-23T09:07:11.778Z,3.50
2022-11-23T09:09:45.485Z,3.75
2022-11-23T09:12:19.303Z,4.72
2022-11-23T09:14:54.307Z,4.42
2022-11-23T09:17:28.498Z,4.55
2022-11-23T09:20:02.609Z,4.75
2022-11-23T09:22:36.556Z,5.08
2022-11-23T09:25:11.615Z,5.10
2022-11-23T09:27:45.439Z,4.17
2022-11-23T09:30:20.917Z,4.10
2022-11-23T09:32:56.498Z,5.20
2022-11-23T09:35:30.175Z,4.05
2022-11-23T09:38:04.185Z,5.05
2022-11-23T09:40:40.170Z,4.05
2022-11-23T09:43:33.091Z,4.70
2022-11-23T09:46:11.327Z,5.83
2022-11-23T09:48:54.199Z,5.85
2022-11-23T09:51:27.609Z,6.47
2022-11-23T09:54:03.952Z,8.83
2022-11-23T09:56:39.021Z,6.03
2022-11-23T09:59:17.767Z,5.42
2022-11-23T10:01:51.452Z,4.60
2022-11-23T10:04:26.372Z,5.35
2022-11-23T10:07:02.910Z,5.50
2022-11-23T10:09:39.941Z,4.50
2022-11-23T10:12:25.852Z,5.87
2022-11-23T10:15:05.641Z,7.22
2022-11-23T10:17:53.389Z,5.47
2022-11-23T10:20:41.775Z,3.52
2022-11-23T10:23:21.045Z,5.35
2022-11-23T10:25:55.117Z,5.25
2022-11-23T10:28:31.375Z,4.08
2022-11-23T10:31:08.160Z,3.70
2022-11-23T10:33:45.602Z,4.65
2022-11-23T10:36:19.113Z,2.98
2022-11-23T10:38:55.760Z,2.85
2022-11-23T10:41:31.048Z,3.45
2022-11-23T10:44:07.709Z,3.85
2022-11-23T10:46:42.715Z,3.08
2022-11-23T10:49:23.933Z,4.15
2022-11-23T10:51:59.423Z,3.17
2022-11-23T10:54:36.365Z,4.12
2022-11-23T10:57:26.046Z,5.17
2022-11-23T11:00:02.440Z,3.05
2022-11-23T11:02:43.430Z,2.72
2022-11-23T11:05:46.271Z,3.15
2022-11-23T11:08:03.479Z,4.08
2022-11-23T11:10:42.165Z,2.35
2022-11-23T11:13:30.078Z,3.80
2022-11-23T11:16:06.189Z,3.37
2022-11-23T11:18:40.634Z,2.77
2022-11-23T11:21:21.323Z,4.67
2022-11-23T11:23:57.484Z,4.58
2022-11-23T11:26:32.893Z,2.95
2022-11-23T11:29:10.230Z,3.85
2022-11-23T11:31:52.085Z,2.50
2022-11-23T11:34:29.302Z,3.72
2022-11-23T11:37:07.950Z,3.17
2022-11-23T11:39:45.658Z,3.77
2022-11-23T11:42:23.354Z,3.12
2022-11-23T11:44:59.036Z,2.90
2022-11-23T11:47:37.021Z,2.90
2022-11-23T11:50:15.046Z,6.12
2022-11-23T11:52:51.491Z,6.22
2022-11-23T11:55:27.875Z,7.40
2022-11-23T11:58:05.486Z,3.92
2022-11-23T12:00:44.892Z,6.03
2022-11-23T12:03:21.937Z,4.47
2022-11-23T12:05:57.700Z,4.00
2022-11-23T12:08:35.860Z,5.03
2022-11-23T12:11:12.008Z,4.85
2022-11-23T12:13:47.629Z,2.80
2022-11-23T12:16:26.467Z,3.80
2022-11-23T12:19:21.080Z,4.25
2022-11-23T12:22:32.195Z,3.42
2022-11-23T12:25:15.715Z,3.98
2022-11-23T12:27:55.815Z,2.65
2022-11-23T12:30:35.453Z,2.40
2022-11-23T12:36:49.170Z,2.87
2022-11-23T12:39:32.211Z,4.25
2022-11-23T12:42:08.806Z,5.85
2022-11-23T12:45:03.387Z,2.77
2022-11-23T12:47:44.146Z,5.25
2022-11-23T12:50:22.243Z,2.77
2022-11-23T12:53:20.620Z,3.08
2022-11-23T12:55:57.142Z,2.35
2022-11-23T12:58:31.913Z,3.72
2022-11-23T13:01:09.561Z,3.33
2022-11-23T13:07:20.748Z,3.87
2022-11-23T13:09:41.104Z,3.75
2022-11-23T13:12:27.134Z,5.00
2022-11-23T13:15:05.189Z,3.98
2022-11-23T13:17:42.868Z,4.42
2022-11-23T13:20:40.522Z,2.98
2022-11-23T13:25:47.269Z,3.90
2022-11-23T13:28:33.344Z,3.70
2022-11-23T13:31:25.359Z,4.33
2022-11-23T13:34:00.227Z,4.95
2022-11-23T13:37:11.740Z,4.72
2022-11-23T13:39:57.556Z,2.30
2022-11-23T13:42:33.892Z,2.90
2022-11-23T13:45:30.514Z,3.83
2022-11-23T13:48:48.876Z,4.50
2022-11-23T13:51:03.133Z,3.15
2022-11-23T13:53:39.126Z,3.83
2022-11-23T13:56:29.573Z,3.90
2022-11-23T13:59:28.790Z,3.70
2022-11-23T14:02:04.969Z,2.87
2022-11-23T14:04:40.149Z,4.05
2022-11-23T14:07:16.861Z,4.33
2022-11-23T14:09:53.530Z,4.42
2022-11-23T14:12:31.046Z,4.00
2022-11-23T14:15:07.953Z,4.22
2022-11-23T14:18:48.105Z,4.62
2022-11-23T14:24:25.852Z,4.28
2022-11-23T14:27:45.095Z,6.20
2022-11-23T14:30:10.247Z,7.78
2022-11-23T14:32:50.769Z,6.40
2022-11-23T14:35:29.104Z,5.83
2022-11-23T14:38:33.639Z,4.70
2022-11-23T14:41:10.766Z,4.35
2022-11-23T14:46:22.864Z,4.17
2022-11-23T14:49:30.827Z,5.65
2022-11-23T14:52:20.630Z,4.35
2022-11-23T14:54:55.301Z,5.12
2022-11-23T14:57:31.570Z,5.50
2022-11-23T15:00:11.677Z,4.37
2022-11-23T15:02:44.873Z,5.33
2022-11-23T15:05:21.338Z,6.10
2022-11-23T15:07:57.873Z,4.33
2022-11-23T15:10:40.038Z,4.10
2022-11-23T15:13:27.826Z,5.33
2022-11-23T15:16:06.504Z,3.50
2022-11-23T15:18:41.348Z,5.72
2022-11-23T15:21:27.196Z,4.25
2022-11-23T15:24:00.278Z,5.37
2022-11-23T15:26:48.155Z,3.98
2022-11-23T15:29:34.485Z,4.50
2022-11-23T15:32:33.887Z,4.97
2022-11-23T15:35:01.578Z,3.90
2022-11-23T15:37:37.592Z,4.70
2022-11-23T15:42:49.942Z,5.75
2022-11-23T15:46:01.203Z,5.08
2022-11-23T15:48:37.168Z,6.12
2022-11-23T15:51:26.040Z,6.97
2022-11-23T15:54:01.615Z,6.35
2022-11-23T15:56:37.071Z,7.45
2022-11-23T15:59:18.438Z,6.65
2022-11-23T16:01:51.609Z,5.92
2022-11-23T16:04:31.486Z,9.15
2022-11-23T16:07:19.193Z,6.78
2022-11-23T16:09:56.251Z,6.25
2022-11-23T16:12:33.990Z,8.95
2022-11-23T16:15:49.641Z,8.50
2022-11-23T16:18:27.890Z,8.50
2022-11-23T16:21:05.134Z,6.20
2022-11-23T16:23:44.263Z,8.60
2022-11-23T16:26:18.584Z,10.35
2022-11-23T16:28:54.608Z,8.23
2022-11-23T16:31:33.379Z,9.65
2022-11-23T16:34:11.735Z,12.55
2022-11-23T16:36:44.867Z,8.30
2022-11-23T16:39:18.066Z,9.25
2022-11-23T16:41:51.504Z,9.55
2022-11-23T16:44:24.596Z,8.10
2022-11-23T16:46:59.258Z,9.85
2022-11-23T16:49:32.500Z,11.15
2022-11-23T16:52:06.103Z,12.05
2022-11-23T16:54:39.935Z,11.38
2022-11-23T16:57:19.666Z,9.35
2022-11-23T16:59:53.688Z,10.03
2022-11-23T17:02:27.749Z,9.90
2022-11-23T17:05:01.596Z,10.60
2022-11-23T17:07:35.397Z,10.68
2022-11-23T17:10:10.488Z,10.32
2022-11-23T17:12:47.705Z,12.70
2022-11-23T17:15:23.811Z,10.90
2022-11-23T17:18:03.148Z,11.75
2022-11-23T17:20:38.837Z,9.83
2022-11-23T17:23:13.420Z,9.55
2022-11-23T17:25:47.404Z,8.88
2022-11-23T17:28:22.575Z,12.53
2022-11-23T17:30:56.334Z,12.75
2022-11-23T17:33:33.244Z,10.72
2022-11-23T17:36:09.534Z,13.05
2022-11-23T17:38:44.908Z,13.43
2022-11-23T17:41:19.067Z,16.70
2022-11-23T17:43:55.447Z,12.68
2022-11-23T17:46:33.249Z,11.53
2022-11-23T17:49:10.881Z,11.18
2022-11-23T17:51:44.405Z,14.03
2022-11-23T17:54:19.632Z,12.98
2022-11-23T17:56:56.041Z,12.20
2022-11-23T17:59:29.366Z,15.55
2022-11-23T18:02:03.124Z,14.18
2022-11-23T18:04:38.285Z,12.53
2022-11-23T18:07:15.245Z,14.98
2022-11-23T18:09:49.014Z,13.17
2022-11-23T18:12:22.568Z,13.13
2022-11-23T18:14:58.558Z,12.33
2022-11-23T18:17:32.183Z,11.12
2022-11-23T18:20:08.828Z,12.50
2022-11-23T18:22:42.078Z,10.32
2022-11-23T18:25:15.763Z,14.20
2022-11-23T18:27:49.168Z,14.53
2022-11-23T18:30:22.846Z,13.10
2022-11-23T18:32:56.579Z,14.33
2022-11-23T18:35:30.530Z,13.08
2022-11-23T18:38:04.007Z,11.55
2022-11-23T18:40:37.144Z,10.63
2022-11-23T18:43:10.870Z,12.03
2022-11-23T18:45:44.387Z,12.40
2022-11-23T18:48:17.878Z,12.45
2022-11-23T18:50:51.857Z,11.73
2022-11-23T18:53:25.764Z,12.45
2022-11-23T18:56:00.739Z,11.57
2022-11-23T18:58:36.141Z,12.20
2022-11-23T19:01:13.833Z,11.35
2022-11-23T19:03:48.632Z,13.50
2022-11-23T19:06:24.662Z,11.57
2022-11-23T19:08:58.241Z,10.90
2022-11-23T19:11:32.586Z,13.85
2022-11-23T19:14:06.102Z,12.50
2022-11-23T19:16:39.383Z,13.00
2022-11-23T19:19:14.158Z,10.50
2022-11-23T19:21:48.009Z,10.78
2022-11-23T19:24:21.515Z,14.35
2022-11-23T19:26:55.152Z,14.07
2022-11-23T19:29:28.732Z,14.80
2022-11-23T19:32:02.135Z,11.15
2022-11-23T19:34:35.836Z,13.93
2022-11-23T19:37:09.552Z,13.03
2022-11-23T19:39:43.336Z,13.78
2022-11-23T19:42:16.879Z,13.10
2022-11-23T19:44:52.250Z,11.05
2022-11-23T19:47:25.809Z,12.47
2022-11-23T19:49:59.329Z,12.15
2022-11-23T19:53:03.629Z,10.95
2022-11-23T19:55:11.916Z,12.15
2022-11-23T19:57:45.065Z,9.40
2022-11-23T20:00:20.392Z,12.28
2022-11-23T20:02:54.003Z,11.45
2022-11-23T20:05:27.437Z,12.73
2022-11-23T20:08:02.043Z,10.93
2022-11-23T20:10:35.330Z,11.28
2022-11-23T20:13:09.010Z,9.40
2022-11-23T20:15:44.120Z,12.20
2022-11-23T20:18:18.439Z,10.63
2022-11-23T20:20:52.028Z,11.85
2022-11-23T20:23:25.716Z,7.72
2022-11-23T20:25:59.838Z,9.08
2022-11-23T20:28:33.244Z,8.68
2022-11-23T20:31:08.151Z,9.60
2022-11-23T20:33:41.633Z,8.23
2022-11-23T20:36:18.861Z,9.70
2022-11-23T20:38:52.794Z,14.10
2022-11-23T20:41:27.636Z,9.25
2022-11-23T20:44:03.137Z,11.35
2022-11-23T20:49:12.259Z,8.70
2022-11-23T20:51:45.586Z,10.18
2022-11-23T20:54:19.117Z,9.43
2022-11-23T20:56:52.369Z,8.93
2022-11-23T20:59:25.864Z,9.88
2022-11-23T21:01:59.121Z,14.25
2022-11-23T21:04:33.566Z,9.65
2022-11-23T21:07:07.740Z,10.48
2022-11-23T21:09:41.163Z,12.20
2022-11-23T21:12:32.171Z,10.20
2022-11-23T21:15:06.594Z,12.65
2022-11-23T21:17:40.413Z,10.38
2022-11-23T21:20:14.927Z,9.55
2022-11-23T21:22:48.496Z,9.10
2022-11-23T21:25:22.149Z,11.05
2022-11-23T21:27:55.884Z,10.68
2022-11-23T21:30:29.572Z,10.72
2022-11-23T21:33:03.313Z,10.78
2022-11-23T21:35:38.319Z,10.08
2022-11-23T21:38:11.840Z,8.65
2022-11-23T21:40:45.702Z,8.73
2022-11-23T21:43:19.457Z,8.93
2022-11-23T21:46:00.861Z,8.90
2022-11-23T21:48:34.785Z,6.40
2022-11-23T21:51:10.531Z,7.90
2022-11-23T21:53:44.882Z,10.58
2022-11-23T21:56:19.267Z,8.58
2022-11-23T21:58:53.235Z,8.28
2022-11-23T22:01:28.787Z,10.60
2022-11-23T22:04:04.589Z,8.68
2022-11-23T22:06:37.955Z,9.73
2022-11-23T22:09:12.401Z,8.38
2022-11-23T22:11:46.307Z,10.78
2022-11-23T22:14:20.656Z,9.33
2022-11-23T22:16:56.200Z,9.85
2022-11-23T22:19:29.893Z,8.43
2022-11-23T22:22:04.288Z,8.15
2022-11-23T22:24:37.448Z,10.15
2022-11-23T22:27:11.336Z,9.43
2022-11-23T22:29:44.778Z,10.88
2022-11-23T22:32:18.103Z,10.40
2022-11-23T22:34:51.748Z,9.25
2022-11-23T22:37:25.177Z,8.00
2022-11-23T22:39:58.513Z,9.05
2022-11-23T22:42:31.989Z,9.33
2022-11-23T22:45:05.652Z,8.25
2022-11-23T22:47:38.957Z,10.48
2022-11-23T22:50:12.943Z,9.83
2022-11-23T22:52:46.604Z,10.10
2022-11-23T22:55:20.142Z,9.75
2022-11-23T22:57:53.536Z,10.95
2022-11-23T23:00:26.886Z,8.90
2022-11-23T23:03:00.385Z,11.88
2022-11-23T23:05:33.912Z,8.65
2022-11-23T23:08:08.141Z,11.08
2022-11-23T23:10:41.488Z,10.72
2022-11-23T23:13:14.692Z,10.23
2022-11-23T23:15:48.384Z,8.93
2022-11-23T23:18:21.839Z,10.35
2022-11-23T23:20:56.555Z,11.03
2022-11-23T23:23:29.909Z,9.53
2022-11-23T23:26:03.621Z,12.33
2022-11-23T23:28:37.035Z,10.28
2022-11-23T23:31:12.860Z,12.33
2022-11-23T23:33:46.347Z,13.35
2022-11-23T23:36:21.987Z,10.78
2022-11-23T23:38:55.670Z,10.72
2022-11-23T23:41:29.148Z,10.72
2022-11-23T23:44:02.949Z,13.85
2022-11-23T23:46:36.395Z,13.50
2022-11-23T23:49:09.978Z,12.63
2022-11-23T23:51:47.543Z,10.20
2022-11-23T23:54:19.025Z,13.53
2022-11-23T23:56:52.825Z,11.80
2022-11-23T23:59:26.288Z,10.88
